createdAt,value
2017-07-17T00:00:05.590Z,0
2017-07-17T00:00:31.735Z,0
2017-07-17T00:00:57.869Z,0
2017-07-17T00:01:24.019Z,0
2017-07-17T00:01:50.168Z,0
2017-07-17T00:02:16.322Z,0
2017-07-17T00:02:42.463Z,0
2017-07-17T00:03:08.612Z,0
2017-07-17T00:03:34.749Z,0
2017-07-17T00:04:00.889Z,0
2017-07-17T00:04:27.040Z,0
2017-07-17T00:04:53.178Z,0
2017-07-17T00:05:19.316Z,0
2017-07-17T00:05:45.470Z,0
2017-07-17T00:06:11.616Z,0
2017-07-17T00:06:37.746Z,0
2017-07-17T00:07:03.898Z,0
2017-07-17T00:07:30.043Z,0
2017-07-17T00:07:56.187Z,0
2017-07-17T00:08:22.324Z,0
2017-07-17T00:08:48.462Z,0
2017-07-17T00:09:14.616Z,0
2017-07-17T00:09:40.761Z,0
2017-07-17T00:10:06.910Z,0
2017-07-17T00:10:33.061Z,0
2017-07-17T00:10:59.201Z,0
2017-07-17T00:11:25.336Z,0
2017-07-17T00:11:51.487Z,0
2017-07-17T00:12:17.637Z,0
2017-07-17T00:12:43.772Z,0
2017-07-17T00:13:09.914Z,0
2017-07-17T00:13:36.055Z,0
2017-07-17T00:14:02.207Z,0
2017-07-17T00:14:28.354Z,0
2017-07-17T00:14:54.487Z,0
2017-07-17T00:15:20.638Z,0
2017-07-17T00:15:46.787Z,0
2017-07-17T00:16:12.920Z,0
2017-07-17T00:16:39.063Z,0
2017-07-17T00:17:05.217Z,0
2017-07-17T00:17:31.377Z,0
2017-07-17T00:17:57.519Z,0
2017-07-17T00:18:23.667Z,0
2017-07-17T00:18:49.803Z,0
2017-07-17T00:19:15.956Z,0
2017-07-17T00:19:42.088Z,0
2017-07-17T00:20:08.234Z,0
2017-07-17T00:20:34.380Z,0
2017-07-17T00:21:00.518Z,0
2017-07-17T00:21:26.659Z,0
2017-07-17T00:21:52.811Z,0
2017-07-17T00:22:18.970Z,0
2017-07-17T00:22:45.108Z,0
2017-07-17T00:23:11.260Z,0
2017-07-17T00:23:37.404Z,0
2017-07-17T00:24:03.542Z,0
2017-07-17T00:24:29.695Z,0
2017-07-17T00:24:55.836Z,0
2017-07-17T00:25:21.970Z,0
2017-07-17T00:25:48.119Z,0
2017-07-17T00:26:14.270Z,0
2017-07-17T00:26:40.401Z,0
2017-07-17T00:27:06.548Z,0
2017-07-17T00:27:32.697Z,0
2017-07-17T00:27:58.833Z,0
2017-07-17T00:28:24.974Z,0
2017-07-17T00:28:51.128Z,0
2017-07-17T00:29:17.266Z,0
2017-07-17T00:29:43.402Z,0
2017-07-17T00:30:09.546Z,0
2017-07-17T00:30:35.694Z,0
2017-07-17T00:31:01.848Z,0
2017-07-17T00:31:28.018Z,0
2017-07-17T00:31:54.121Z,0
2017-07-17T00:32:20.276Z,0
2017-07-17T00:32:46.417Z,0
2017-07-17T00:33:12.549Z,0
2017-07-17T00:33:38.707Z,0
2017-07-17T00:34:04.846Z,0
2017-07-17T00:34:30.984Z,0
2017-07-17T00:34:57.133Z,0
2017-07-17T00:35:23.281Z,0
2017-07-17T00:35:49.424Z,0
2017-07-17T00:36:15.567Z,0
2017-07-17T00:36:41.706Z,0
2017-07-17T00:37:07.858Z,0
2017-07-17T00:37:33.997Z,0
2017-07-17T00:38:00.129Z,0
2017-07-17T00:38:26.281Z,0
2017-07-17T00:38:52.428Z,0
2017-07-17T00:39:18.563Z,0
2017-07-17T00:39:44.713Z,0
2017-07-17T00:40:10.867Z,0
2017-07-17T00:40:36.998Z,0
2017-07-17T00:41:03.142Z,0
2017-07-17T00:41:29.281Z,0
2017-07-17T00:41:55.432Z,0
2017-07-17T00:42:21.576Z,0
2017-07-17T00:42:47.733Z,0
2017-07-17T00:43:13.879Z,0
2017-07-17T00:43:40.031Z,0
2017-07-17T00:44:06.160Z,0
2017-07-17T00:44:32.308Z,0
2017-07-17T00:44:58.460Z,0
2017-07-17T00:45:24.592Z,0
2017-07-17T00:45:50.732Z,0
2017-07-17T00:46:16.933Z,0
2017-07-17T00:46:43.024Z,0
2017-07-17T00:47:09.175Z,0
2017-07-17T00:47:35.305Z,0
2017-07-17T00:48:01.454Z,0
2017-07-17T00:48:27.602Z,0
2017-07-17T00:48:53.737Z,0
2017-07-17T00:49:19.875Z,0
2017-07-17T00:49:46.029Z,0
2017-07-17T00:50:12.164Z,0
2017-07-17T00:50:38.301Z,0
2017-07-17T00:51:04.454Z,0
2017-07-17T00:51:30.602Z,0
2017-07-17T00:51:56.738Z,0
2017-07-17T00:52:22.882Z,0
2017-07-17T00:52:49.017Z,0
2017-07-17T00:53:15.168Z,0
2017-07-17T00:53:41.309Z,0
2017-07-17T00:54:07.443Z,0
2017-07-17T00:54:33.600Z,0
2017-07-17T00:54:59.741Z,0
2017-07-17T00:55:25.878Z,0
2017-07-17T00:55:52.027Z,0
2017-07-17T00:56:18.172Z,0
2017-07-17T00:56:44.307Z,0
2017-07-17T00:57:10.460Z,0
2017-07-17T00:57:36.609Z,0
2017-07-17T00:58:02.754Z,0
2017-07-17T00:58:28.894Z,0
2017-07-17T00:58:55.026Z,0
2017-07-17T00:59:21.179Z,0
2017-07-17T00:59:47.327Z,0
2017-07-17T01:00:13.466Z,0
2017-07-17T01:00:39.606Z,0
2017-07-17T01:01:05.756Z,0
2017-07-17T01:01:31.889Z,0
2017-07-17T01:01:58.037Z,0
2017-07-17T01:02:24.186Z,0
2017-07-17T01:02:50.322Z,0
2017-07-17T01:03:16.466Z,0
2017-07-17T01:03:42.609Z,0
2017-07-17T01:04:08.753Z,0
2017-07-17T01:04:34.905Z,0
2017-07-17T01:05:01.038Z,0
2017-07-17T01:05:27.185Z,0
2017-07-17T01:05:53.338Z,0
2017-07-17T01:06:19.474Z,0
2017-07-17T01:06:45.615Z,0
2017-07-17T01:07:11.768Z,0
2017-07-17T01:07:37.907Z,0
2017-07-17T01:08:04.040Z,0
2017-07-17T01:08:30.199Z,0
2017-07-17T01:08:56.342Z,0
2017-07-17T01:09:22.474Z,0
2017-07-17T01:09:48.630Z,0
2017-07-17T01:10:14.772Z,0
2017-07-17T01:10:40.906Z,0
2017-07-17T01:11:07.053Z,0
2017-07-17T01:11:33.205Z,0
2017-07-17T01:11:59.336Z,0
2017-07-17T01:12:25.485Z,0
2017-07-17T01:12:51.638Z,0
2017-07-17T01:13:17.773Z,0
2017-07-17T01:13:43.913Z,0
2017-07-17T01:14:10.065Z,0
2017-07-17T01:14:36.205Z,0
2017-07-17T01:15:02.355Z,0
2017-07-17T01:15:28.488Z,0
2017-07-17T01:15:54.658Z,0
2017-07-17T01:16:20.812Z,0
2017-07-17T01:16:46.947Z,0
2017-07-17T01:17:13.090Z,0
2017-07-17T01:17:39.241Z,0
2017-07-17T01:18:05.382Z,0
2017-07-17T01:18:31.519Z,0
2017-07-17T01:18:57.673Z,0
2017-07-17T01:19:23.812Z,0
2017-07-17T01:19:49.947Z,0
2017-07-17T01:20:16.101Z,0
2017-07-17T01:20:42.242Z,0
2017-07-17T01:21:08.390Z,0
2017-07-17T01:21:34.529Z,0
2017-07-17T01:22:00.665Z,0
2017-07-17T01:22:26.815Z,0
2017-07-17T01:22:52.956Z,0
2017-07-17T01:23:19.089Z,0
2017-07-17T01:23:45.241Z,0
2017-07-17T01:24:11.387Z,0
2017-07-17T01:24:37.524Z,0
2017-07-17T01:25:03.672Z,0
2017-07-17T01:25:29.824Z,0
2017-07-17T01:25:55.962Z,0
2017-07-17T01:26:22.107Z,0
2017-07-17T01:26:48.245Z,0
2017-07-17T01:27:14.398Z,0
2017-07-17T01:27:40.538Z,0
2017-07-17T01:28:06.675Z,0
2017-07-17T01:28:32.826Z,0
2017-07-17T01:28:58.974Z,0
2017-07-17T01:29:25.101Z,0
2017-07-17T01:29:51.243Z,0
2017-07-17T01:30:17.426Z,0
2017-07-17T01:30:43.562Z,0
2017-07-17T01:31:09.710Z,0
2017-07-17T01:31:35.843Z,0
2017-07-17T01:32:02.019Z,0
2017-07-17T01:32:28.174Z,0
2017-07-17T01:32:54.308Z,0
2017-07-17T01:33:20.455Z,0
2017-07-17T01:33:46.607Z,0
2017-07-17T01:34:12.766Z,0
2017-07-17T01:34:38.905Z,0
2017-07-17T01:35:05.057Z,0
2017-07-17T01:35:31.197Z,0
2017-07-17T01:35:57.331Z,0
2017-07-17T01:36:23.487Z,0
2017-07-17T01:36:49.627Z,0
2017-07-17T01:37:15.779Z,0
2017-07-17T01:37:41.914Z,0
2017-07-17T01:38:08.053Z,0
2017-07-17T01:38:34.204Z,0
2017-07-17T01:39:00.342Z,0
2017-07-17T01:39:26.475Z,0
2017-07-17T01:39:52.631Z,0
2017-07-17T01:40:18.773Z,0
2017-07-17T01:40:44.903Z,0
2017-07-17T01:41:11.056Z,0
2017-07-17T01:41:37.200Z,0
2017-07-17T01:42:03.358Z,0
2017-07-17T01:42:29.508Z,0
2017-07-17T01:42:55.647Z,0
2017-07-17T01:43:21.827Z,0
2017-07-17T01:43:47.970Z,0
2017-07-17T01:44:14.105Z,0
2017-07-17T01:44:40.257Z,0
2017-07-17T01:45:06.404Z,0
2017-07-17T01:45:32.540Z,0
2017-07-17T01:45:58.685Z,0
2017-07-17T01:46:24.839Z,0
2017-07-17T01:46:50.971Z,0
2017-07-17T01:47:17.119Z,0
2017-07-17T01:47:43.270Z,0
2017-07-17T01:48:09.406Z,0
2017-07-17T01:48:35.553Z,0
2017-07-17T01:49:01.690Z,0
2017-07-17T01:49:27.839Z,0
2017-07-17T01:49:53.990Z,0
2017-07-17T01:50:20.122Z,0
2017-07-17T01:50:46.266Z,0
2017-07-17T01:51:12.445Z,0
2017-07-17T01:51:38.579Z,0
2017-07-17T01:52:04.721Z,0
2017-07-17T01:52:30.870Z,0
2017-07-17T01:52:57.010Z,0
2017-07-17T01:53:23.142Z,0
2017-07-17T01:53:49.294Z,0
2017-07-17T01:54:15.475Z,0
2017-07-17T01:54:41.572Z,0
2017-07-17T01:55:07.722Z,0
2017-07-17T01:55:33.866Z,0
2017-07-17T01:56:00.006Z,0
2017-07-17T01:56:26.151Z,0
2017-07-17T01:56:52.300Z,0
2017-07-17T01:57:18.436Z,0
2017-07-17T01:57:44.580Z,0
2017-07-17T01:58:10.733Z,0
2017-07-17T01:58:36.891Z,0
2017-07-17T01:59:03.037Z,0
2017-07-17T01:59:29.179Z,0
2017-07-17T01:59:55.330Z,0
2017-07-17T02:00:21.482Z,0
2017-07-17T02:00:47.614Z,0
2017-07-17T02:01:13.759Z,0
2017-07-17T02:01:39.907Z,0
2017-07-17T02:02:06.042Z,0
2017-07-17T02:02:32.183Z,0
2017-07-17T02:02:58.334Z,0
2017-07-17T02:03:24.469Z,0
2017-07-17T02:03:50.605Z,0
2017-07-17T02:04:16.760Z,0
2017-07-17T02:04:42.904Z,0
2017-07-17T02:05:09.049Z,0
2017-07-17T02:05:35.186Z,0
2017-07-17T02:06:01.323Z,0
2017-07-17T02:06:27.478Z,0
2017-07-17T02:06:53.613Z,0
2017-07-17T02:07:19.749Z,0
2017-07-17T02:07:45.899Z,0
2017-07-17T02:08:12.042Z,0
2017-07-17T02:08:38.178Z,0
2017-07-17T02:09:04.309Z,0
2017-07-17T02:09:30.430Z,0
2017-07-17T02:09:56.561Z,0
2017-07-17T02:10:22.681Z,0
2017-07-17T02:10:48.811Z,0
2017-07-17T02:11:14.924Z,0
2017-07-17T02:11:41.051Z,0
2017-07-17T02:12:07.186Z,0
2017-07-17T02:12:33.299Z,0
2017-07-17T02:12:59.423Z,0
2017-07-17T02:13:25.577Z,0
2017-07-17T02:13:51.697Z,0
2017-07-17T02:14:17.814Z,0
2017-07-17T02:14:43.951Z,0
2017-07-17T02:15:10.075Z,0
2017-07-17T02:15:36.190Z,0
2017-07-17T02:16:02.321Z,0
2017-07-17T02:16:28.442Z,0
2017-07-17T02:16:54.572Z,0
2017-07-17T02:17:20.692Z,0
2017-07-17T02:17:46.808Z,0
2017-07-17T02:18:12.944Z,0
2017-07-17T02:18:39.069Z,0
2017-07-17T02:19:05.186Z,0
2017-07-17T02:19:31.320Z,0
2017-07-17T02:19:57.446Z,0
2017-07-17T02:20:23.564Z,0
2017-07-17T02:20:49.695Z,0
2017-07-17T02:21:15.828Z,0
2017-07-17T02:21:41.949Z,0
2017-07-17T02:22:08.072Z,0
2017-07-17T02:22:34.188Z,0
2017-07-17T02:23:00.325Z,0
2017-07-17T02:23:26.451Z,0
2017-07-17T02:23:52.570Z,0
2017-07-17T02:24:18.700Z,0
2017-07-17T02:24:44.832Z,0
2017-07-17T02:25:10.945Z,0
2017-07-17T02:25:37.072Z,0
2017-07-17T02:26:03.209Z,0
2017-07-17T02:26:29.326Z,0
2017-07-17T02:26:55.449Z,0
2017-07-17T02:27:21.574Z,0
2017-07-17T02:27:47.704Z,0
2017-07-17T02:28:13.837Z,0
2017-07-17T02:28:39.950Z,0
2017-07-17T02:29:06.077Z,0
2017-07-17T02:29:32.209Z,0
2017-07-17T02:29:58.325Z,0
2017-07-17T02:30:24.450Z,0
2017-07-17T02:30:50.581Z,0
2017-07-17T02:31:16.699Z,0
2017-07-17T02:31:42.816Z,0
2017-07-17T02:32:08.952Z,0
2017-07-17T02:32:35.075Z,0
2017-07-17T02:33:01.204Z,0
2017-07-17T02:33:27.318Z,0
2017-07-17T02:33:53.442Z,0
2017-07-17T02:34:19.571Z,0
2017-07-17T02:34:45.690Z,0
2017-07-17T02:35:11.807Z,0
2017-07-17T02:35:37.944Z,0
2017-07-17T02:36:04.066Z,0
2017-07-17T02:36:30.181Z,0
2017-07-17T02:36:56.312Z,0
2017-07-17T02:37:22.437Z,0
2017-07-17T02:37:48.558Z,0
2017-07-17T02:38:14.684Z,0
2017-07-17T02:38:40.815Z,0
2017-07-17T02:39:06.930Z,0
2017-07-17T02:39:33.058Z,0
2017-07-17T02:39:59.192Z,0
2017-07-17T02:40:25.307Z,0
2017-07-17T02:40:51.431Z,0
2017-07-17T02:41:17.585Z,0
2017-07-17T02:41:43.705Z,0
2017-07-17T02:42:09.821Z,0
2017-07-17T02:42:35.955Z,0
2017-07-17T02:43:02.077Z,0
2017-07-17T02:43:28.198Z,0
2017-07-17T02:43:54.328Z,0
2017-07-17T02:44:20.449Z,0
2017-07-17T02:44:46.582Z,0
2017-07-17T02:45:12.703Z,0
2017-07-17T02:45:38.819Z,0
2017-07-17T02:46:05.055Z,0
2017-07-17T02:46:31.178Z,0
2017-07-17T02:46:57.296Z,0
2017-07-17T02:47:23.428Z,0
2017-07-17T02:47:49.556Z,0
2017-07-17T02:48:15.674Z,0
2017-07-17T02:48:41.802Z,0
2017-07-17T02:49:07.936Z,0
2017-07-17T02:49:34.054Z,0
2017-07-17T02:50:00.177Z,0
2017-07-17T02:50:26.294Z,0
2017-07-17T02:50:52.424Z,0
2017-07-17T02:51:18.549Z,0
2017-07-17T02:51:44.667Z,0
2017-07-17T02:52:10.797Z,0
2017-07-17T02:52:36.930Z,0
2017-07-17T02:53:03.044Z,0
2017-07-17T02:53:29.172Z,0
2017-07-17T02:53:55.302Z,0
2017-07-17T02:54:21.418Z,0
2017-07-17T02:54:47.540Z,0
2017-07-17T02:55:13.663Z,0
2017-07-17T02:55:39.792Z,0
2017-07-17T02:56:05.924Z,0
2017-07-17T02:56:32.039Z,0
2017-07-17T02:56:58.165Z,0
2017-07-17T02:57:24.298Z,0
2017-07-17T02:57:50.418Z,0
2017-07-17T02:58:16.538Z,0
2017-07-17T02:58:42.672Z,0
2017-07-17T02:59:08.792Z,0
2017-07-17T02:59:34.909Z,0
2017-07-17T03:00:01.045Z,0
2017-07-17T03:00:27.172Z,0
2017-07-17T03:00:53.300Z,0
2017-07-17T03:01:19.416Z,0
2017-07-17T03:01:45.539Z,0
2017-07-17T03:02:11.671Z,0
2017-07-17T03:02:37.789Z,0
2017-07-17T03:03:03.905Z,0
2017-07-17T03:03:30.041Z,0
2017-07-17T03:03:56.162Z,0
2017-07-17T03:04:22.278Z,0
2017-07-17T03:04:48.414Z,0
2017-07-17T03:05:14.541Z,0
2017-07-17T03:05:40.658Z,0
2017-07-17T03:06:06.788Z,0
2017-07-17T03:06:32.905Z,0
2017-07-17T03:06:59.039Z,0
2017-07-17T03:07:25.161Z,0
2017-07-17T03:07:51.280Z,0
2017-07-17T03:08:17.411Z,0
2017-07-17T03:08:43.555Z,0
2017-07-17T03:09:09.654Z,0
2017-07-17T03:09:35.784Z,0
2017-07-17T03:10:01.917Z,0
2017-07-17T03:10:28.032Z,0
2017-07-17T03:10:54.158Z,0
2017-07-17T03:11:20.291Z,0
2017-07-17T03:11:46.409Z,0
2017-07-17T03:12:12.539Z,0
2017-07-17T03:12:38.686Z,0
2017-07-17T03:13:04.786Z,0
2017-07-17T03:13:30.919Z,0
2017-07-17T03:13:57.031Z,0
2017-07-17T03:14:23.158Z,0
2017-07-17T03:14:49.289Z,0
2017-07-17T03:15:15.421Z,0
2017-07-17T03:15:41.566Z,0
2017-07-17T03:16:07.699Z,0
2017-07-17T03:16:33.820Z,0
2017-07-17T03:16:59.936Z,0
2017-07-17T03:17:26.067Z,0
2017-07-17T03:17:52.193Z,0
2017-07-17T03:18:18.323Z,0
2017-07-17T03:18:44.440Z,0
2017-07-17T03:19:10.565Z,0
2017-07-17T03:19:36.695Z,0
2017-07-17T03:20:02.815Z,0
2017-07-17T03:20:28.933Z,0
2017-07-17T03:20:55.070Z,0
2017-07-17T03:21:21.192Z,0
2017-07-17T03:21:47.309Z,0
2017-07-17T03:22:13.443Z,0
2017-07-17T03:22:39.570Z,0
2017-07-17T03:23:05.687Z,0
2017-07-17T03:23:31.816Z,0
2017-07-17T03:23:57.952Z,0
2017-07-17T03:24:24.066Z,0
2017-07-17T03:24:50.189Z,0
2017-07-17T03:25:16.325Z,0
2017-07-17T03:25:42.442Z,0
2017-07-17T03:26:08.565Z,0
2017-07-17T03:26:34.697Z,0
2017-07-17T03:27:00.819Z,0
2017-07-17T03:27:26.935Z,0
2017-07-17T03:27:53.070Z,0
2017-07-17T03:28:19.193Z,0
2017-07-17T03:28:45.322Z,0
2017-07-17T03:29:11.438Z,0
2017-07-17T03:29:37.561Z,5
2017-07-17T03:30:03.694Z,5
2017-07-17T03:30:29.815Z,5
2017-07-17T03:30:55.932Z,5
2017-07-17T03:31:22.068Z,5
2017-07-17T03:31:48.192Z,5
2017-07-17T03:32:14.308Z,5
2017-07-17T03:32:40.444Z,5
2017-07-17T03:33:06.573Z,5
2017-07-17T03:33:32.690Z,5
2017-07-17T03:33:58.820Z,5
2017-07-17T03:34:24.936Z,5
2017-07-17T03:34:51.084Z,5
2017-07-17T03:35:17.196Z,5
2017-07-17T03:35:43.312Z,5
2017-07-17T03:36:09.442Z,5
2017-07-17T03:36:35.566Z,5
2017-07-17T03:37:01.683Z,5
2017-07-17T03:37:27.811Z,5
2017-07-17T03:37:53.946Z,5
2017-07-17T03:38:20.060Z,5
2017-07-17T03:38:46.186Z,5
2017-07-17T03:39:12.319Z,5
2017-07-17T03:39:38.436Z,5
2017-07-17T03:40:04.566Z,5
2017-07-17T03:40:30.686Z,5
2017-07-17T03:40:56.814Z,5
2017-07-17T03:41:22.947Z,5
2017-07-17T03:41:49.062Z,5
2017-07-17T03:42:15.189Z,5
2017-07-17T03:42:41.322Z,5
2017-07-17T03:43:07.458Z,5
2017-07-17T03:43:33.582Z,5
2017-07-17T03:43:59.714Z,5
2017-07-17T03:44:25.832Z,5
2017-07-17T03:44:51.979Z,5
2017-07-17T03:45:18.079Z,5
2017-07-17T03:45:44.204Z,5
2017-07-17T03:46:10.336Z,5
2017-07-17T03:46:36.453Z,5
2017-07-17T03:47:02.578Z,5
2017-07-17T03:47:28.711Z,5
2017-07-17T03:47:54.831Z,5
2017-07-17T03:48:20.948Z,5
2017-07-17T03:48:47.086Z,5
2017-07-17T03:49:13.208Z,5
2017-07-17T03:49:39.324Z,5
2017-07-17T03:50:05.455Z,5
2017-07-17T03:50:31.580Z,5
2017-07-17T03:50:57.727Z,5
2017-07-17T03:51:23.854Z,5
2017-07-17T03:51:49.965Z,5
2017-07-17T03:52:16.100Z,5
2017-07-17T03:52:42.223Z,5
2017-07-17T03:53:08.339Z,5
2017-07-17T03:53:34.470Z,5
2017-07-17T03:54:00.594Z,5
2017-07-17T03:54:26.709Z,5
2017-07-17T03:54:52.840Z,5
2017-07-17T03:55:18.974Z,5
2017-07-17T03:55:45.088Z,5
2017-07-17T03:56:11.213Z,5
2017-07-17T03:56:37.334Z,5
2017-07-17T03:57:03.469Z,5
2017-07-17T03:57:29.595Z,5
2017-07-17T03:57:55.713Z,5
2017-07-17T03:58:21.843Z,5
2017-07-17T03:58:47.975Z,5
2017-07-17T03:59:14.093Z,5
2017-07-17T03:59:40.216Z,5
2017-07-17T04:00:06.350Z,5
2017-07-17T04:00:32.465Z,5
2017-07-17T04:00:58.588Z,5
2017-07-17T04:01:24.718Z,5
2017-07-17T04:01:50.836Z,5
2017-07-17T04:02:16.969Z,5
2017-07-17T04:02:43.082Z,5
2017-07-17T04:03:09.209Z,5
2017-07-17T04:03:35.344Z,5
2017-07-17T04:04:01.459Z,5
2017-07-17T04:04:27.583Z,5
2017-07-17T04:04:53.723Z,5
2017-07-17T04:05:19.836Z,5
2017-07-17T04:05:45.960Z,5
2017-07-17T04:06:12.090Z,10
2017-07-17T04:06:38.214Z,10
2017-07-17T04:07:04.331Z,10
2017-07-17T04:07:30.463Z,10
2017-07-17T04:07:56.586Z,10
2017-07-17T04:08:22.704Z,10
2017-07-17T04:08:48.833Z,10
2017-07-17T04:09:14.965Z,10
2017-07-17T04:09:41.076Z,15
2017-07-17T04:10:07.202Z,15
2017-07-17T04:10:33.357Z,15
2017-07-17T04:10:59.475Z,15
2017-07-17T04:11:25.596Z,15
2017-07-17T04:11:51.728Z,15
2017-07-17T04:12:17.849Z,15
2017-07-17T04:12:43.966Z,15
2017-07-17T04:13:10.116Z,20
2017-07-17T04:13:36.243Z,20
2017-07-17T04:14:02.375Z,20
2017-07-17T04:14:28.491Z,20
2017-07-17T04:14:54.614Z,20
2017-07-17T04:15:20.749Z,20
2017-07-17T04:15:46.869Z,25
2017-07-17T04:16:12.987Z,25
2017-07-17T04:16:39.122Z,25
2017-07-17T04:17:05.245Z,25
2017-07-17T04:17:31.362Z,25
2017-07-17T04:17:57.498Z,25
2017-07-17T04:18:23.624Z,25
2017-07-17T04:18:49.752Z,30
2017-07-17T04:19:15.873Z,30
2017-07-17T04:19:41.990Z,30
2017-07-17T04:20:08.127Z,30
2017-07-17T04:20:34.251Z,35
2017-07-17T04:21:00.366Z,35
2017-07-17T04:21:26.499Z,35
2017-07-17T04:21:52.627Z,40
2017-07-17T04:22:18.742Z,40
2017-07-17T04:22:44.871Z,45
2017-07-17T04:23:11.001Z,50
2017-07-17T04:23:37.113Z,55
2017-07-17T04:24:03.238Z,60
2017-07-17T04:24:29.359Z,60
2017-07-17T04:24:55.492Z,65
2017-07-17T04:25:21.619Z,65
2017-07-17T04:25:47.736Z,65
2017-07-17T04:26:13.863Z,60
2017-07-17T04:26:39.993Z,60
2017-07-17T04:27:06.107Z,60
2017-07-17T04:27:32.233Z,65
2017-07-17T04:27:58.369Z,65
2017-07-17T04:28:24.484Z,65
2017-07-17T04:28:50.606Z,70
2017-07-17T04:29:16.740Z,70
2017-07-17T04:29:42.861Z,65
2017-07-17T04:30:08.994Z,65
2017-07-17T04:30:35.107Z,65
2017-07-17T04:31:01.235Z,60
2017-07-17T04:31:27.389Z,60
2017-07-17T04:31:53.506Z,55
2017-07-17T04:32:19.631Z,55
2017-07-17T04:32:45.764Z,50
2017-07-17T04:33:11.883Z,50
2017-07-17T04:33:38.000Z,50
2017-07-17T04:34:04.135Z,45
2017-07-17T04:34:30.256Z,45
2017-07-17T04:34:56.376Z,40
2017-07-17T04:35:22.507Z,40
2017-07-17T04:35:48.627Z,35
2017-07-17T04:36:14.759Z,35
2017-07-17T04:36:40.878Z,35
2017-07-17T04:37:07.002Z,35
2017-07-17T04:37:33.130Z,40
2017-07-17T04:37:59.274Z,40
2017-07-17T04:38:25.371Z,45
2017-07-17T04:38:51.503Z,50
2017-07-17T04:39:17.629Z,55
2017-07-17T04:39:43.744Z,60
2017-07-17T04:40:09.873Z,65
2017-07-17T04:40:36.004Z,70
2017-07-17T04:41:02.123Z,70
2017-07-17T04:41:28.247Z,75
2017-07-17T04:41:54.363Z,75
2017-07-17T04:42:20.495Z,75
2017-07-17T04:42:46.618Z,75
2017-07-17T04:43:12.735Z,75
2017-07-17T04:43:38.863Z,70
2017-07-17T04:44:04.997Z,70
2017-07-17T04:44:31.112Z,75
2017-07-17T04:44:57.238Z,75
2017-07-17T04:45:23.370Z,75
2017-07-17T04:45:49.486Z,80
2017-07-17T04:46:15.609Z,80
2017-07-17T04:46:41.735Z,85
2017-07-17T04:47:07.862Z,90
2017-07-17T04:47:33.994Z,95
2017-07-17T04:48:00.125Z,105
2017-07-17T04:48:26.251Z,110
2017-07-17T04:48:52.383Z,110
2017-07-17T04:49:18.501Z,110
2017-07-17T04:49:44.625Z,105
2017-07-17T04:50:10.761Z,95
2017-07-17T04:50:36.881Z,90
2017-07-17T04:51:02.997Z,85
2017-07-17T04:51:29.132Z,80
2017-07-17T04:51:55.259Z,80
2017-07-17T04:52:21.371Z,85
2017-07-17T04:52:47.503Z,85
2017-07-17T04:53:13.633Z,85
2017-07-17T04:53:39.745Z,85
2017-07-17T04:54:05.875Z,85
2017-07-17T04:54:32.008Z,85
2017-07-17T04:54:58.122Z,85
2017-07-17T04:55:24.249Z,85
2017-07-17T04:55:50.382Z,85
2017-07-17T04:56:16.498Z,90
2017-07-17T04:56:42.621Z,90
2017-07-17T04:57:08.754Z,90
2017-07-17T04:57:34.874Z,95
2017-07-17T04:58:01.009Z,95
2017-07-17T04:58:27.127Z,100
2017-07-17T04:58:53.254Z,110
2017-07-17T04:59:19.408Z,110
2017-07-17T04:59:45.526Z,115
2017-07-17T05:00:11.648Z,120
2017-07-17T05:00:37.781Z,130
2017-07-17T05:01:03.902Z,140
2017-07-17T05:01:30.018Z,140
2017-07-17T05:01:56.157Z,150
2017-07-17T05:02:22.280Z,155
2017-07-17T05:02:48.397Z,165
2017-07-17T05:03:14.529Z,180
2017-07-17T05:03:40.650Z,190
2017-07-17T05:04:06.784Z,210
2017-07-17T05:04:32.903Z,225
2017-07-17T05:04:59.020Z,230
2017-07-17T05:05:25.155Z,230
2017-07-17T05:05:51.275Z,230
2017-07-17T05:06:17.393Z,235
2017-07-17T05:06:43.524Z,235
2017-07-17T05:07:09.650Z,235
2017-07-17T05:07:35.767Z,245
2017-07-17T05:08:01.896Z,255
2017-07-17T05:08:28.030Z,270
2017-07-17T05:08:54.151Z,300
2017-07-17T05:09:20.275Z,310
2017-07-17T05:09:46.391Z,310
2017-07-17T05:10:12.521Z,295
2017-07-17T05:10:38.646Z,280
2017-07-17T05:11:04.782Z,260
2017-07-17T05:11:30.912Z,245
2017-07-17T05:11:57.045Z,230
2017-07-17T05:12:23.160Z,210
2017-07-17T05:12:49.287Z,205
2017-07-17T05:13:15.417Z,200
2017-07-17T05:13:41.536Z,200
2017-07-17T05:14:07.663Z,205
2017-07-17T05:14:33.788Z,210
2017-07-17T05:14:59.919Z,225
2017-07-17T05:15:26.056Z,235
2017-07-17T05:15:52.166Z,235
2017-07-17T05:16:18.290Z,230
2017-07-17T05:16:44.420Z,225
2017-07-17T05:17:10.537Z,220
2017-07-17T05:17:36.662Z,215
2017-07-17T05:18:02.794Z,210
2017-07-17T05:18:28.916Z,210
2017-07-17T05:18:55.032Z,220
2017-07-17T05:19:21.169Z,220
2017-07-17T05:19:47.294Z,235
2017-07-17T05:20:13.424Z,240
2017-07-17T05:20:39.540Z,270
2017-07-17T05:21:05.665Z,310
2017-07-17T05:21:31.797Z,330
2017-07-17T05:21:57.918Z,340
2017-07-17T05:22:24.034Z,345
2017-07-17T05:22:50.169Z,350
2017-07-17T05:23:16.291Z,355
2017-07-17T05:23:42.408Z,355
2017-07-17T05:24:08.543Z,335
2017-07-17T05:24:34.667Z,315
2017-07-17T05:25:00.785Z,300
2017-07-17T05:25:27.065Z,270
2017-07-17T05:25:53.182Z,250
2017-07-17T05:26:19.320Z,225
2017-07-17T05:26:45.437Z,215
2017-07-17T05:27:11.586Z,195
2017-07-17T05:27:37.709Z,175
2017-07-17T05:28:03.857Z,165
2017-07-17T05:28:29.975Z,165
2017-07-17T05:28:56.105Z,155
2017-07-17T05:29:22.246Z,150
2017-07-17T05:29:48.360Z,140
2017-07-17T05:30:14.507Z,135
2017-07-17T05:30:40.638Z,130
2017-07-17T05:31:06.775Z,140
2017-07-17T05:31:32.906Z,150
2017-07-17T05:31:59.023Z,150
2017-07-17T05:32:25.153Z,155
2017-07-17T05:32:51.286Z,170
2017-07-17T05:33:17.399Z,180
2017-07-17T05:33:43.526Z,180
2017-07-17T05:34:09.657Z,155
2017-07-17T05:34:35.775Z,135
2017-07-17T05:35:01.898Z,120
2017-07-17T05:35:28.029Z,105
2017-07-17T05:35:54.149Z,105
2017-07-17T05:36:20.266Z,110
2017-07-17T05:36:46.405Z,120
2017-07-17T05:37:12.530Z,125
2017-07-17T05:37:38.646Z,135
2017-07-17T05:38:04.778Z,135
2017-07-17T05:38:30.905Z,125
2017-07-17T05:38:57.025Z,115
2017-07-17T05:39:23.156Z,115
2017-07-17T05:39:49.289Z,125
2017-07-17T05:40:15.405Z,135
2017-07-17T05:40:41.531Z,140
2017-07-17T05:41:07.665Z,140
2017-07-17T05:41:33.783Z,140
2017-07-17T05:41:59.906Z,140
2017-07-17T05:42:26.032Z,135
2017-07-17T05:42:52.162Z,135
2017-07-17T05:43:18.295Z,140
2017-07-17T05:43:44.409Z,145
2017-07-17T05:44:10.535Z,150
2017-07-17T05:44:36.669Z,160
2017-07-17T05:45:02.785Z,165
2017-07-17T05:45:28.910Z,180
2017-07-17T05:45:55.044Z,190
2017-07-17T05:46:21.164Z,200
2017-07-17T05:46:47.280Z,220
2017-07-17T05:47:13.414Z,230
2017-07-17T05:47:39.536Z,225
2017-07-17T05:48:05.667Z,200
2017-07-17T05:48:31.785Z,170
2017-07-17T05:48:57.908Z,155
2017-07-17T05:49:24.041Z,155
2017-07-17T05:49:50.162Z,160
2017-07-17T05:50:16.278Z,155
2017-07-17T05:50:42.411Z,155
2017-07-17T05:51:08.535Z,155
2017-07-17T05:51:34.650Z,160
2017-07-17T05:52:00.829Z,165
2017-07-17T05:52:26.998Z,175
2017-07-17T05:52:53.115Z,195
2017-07-17T05:53:19.487Z,215
2017-07-17T05:53:45.600Z,230
2017-07-17T05:54:11.736Z,255
2017-07-17T05:54:37.859Z,290
2017-07-17T05:55:03.976Z,310
2017-07-17T05:55:30.111Z,315
2017-07-17T05:55:56.236Z,320
2017-07-17T05:56:22.372Z,325
2017-07-17T05:56:48.503Z,325
2017-07-17T05:57:14.656Z,335
2017-07-17T05:57:40.770Z,350
2017-07-17T05:58:06.896Z,360
2017-07-17T05:58:33.028Z,365
2017-07-17T05:58:59.148Z,370
2017-07-17T05:59:25.270Z,380
2017-07-17T05:59:51.401Z,390
2017-07-17T06:00:17.522Z,395
2017-07-17T06:00:43.791Z,420
2017-07-17T06:01:09.923Z,425
2017-07-17T06:01:36.047Z,435
2017-07-17T06:02:02.163Z,400
2017-07-17T06:02:28.299Z,345
2017-07-17T06:02:54.427Z,320
2017-07-17T06:03:20.543Z,320
2017-07-17T06:03:46.673Z,315
2017-07-17T06:04:12.806Z,315
2017-07-17T06:04:38.927Z,310
2017-07-17T06:05:05.051Z,320
2017-07-17T06:05:31.169Z,340
2017-07-17T06:05:57.300Z,350
2017-07-17T06:06:23.426Z,345
2017-07-17T06:06:49.542Z,325
2017-07-17T06:07:15.674Z,300
2017-07-17T06:07:41.806Z,285
2017-07-17T06:08:07.922Z,270
2017-07-17T06:08:34.048Z,265
2017-07-17T06:09:00.182Z,260
2017-07-17T06:09:26.301Z,265
2017-07-17T06:09:52.425Z,280
2017-07-17T06:10:18.548Z,275
2017-07-17T06:10:44.679Z,280
2017-07-17T06:11:10.811Z,295
2017-07-17T06:11:37.027Z,295
2017-07-17T06:12:03.151Z,280
2017-07-17T06:12:29.283Z,265
2017-07-17T06:12:55.402Z,260
2017-07-17T06:13:21.524Z,245
2017-07-17T06:13:47.657Z,240
2017-07-17T06:14:13.778Z,245
2017-07-17T06:14:39.895Z,245
2017-07-17T06:15:06.031Z,250
2017-07-17T06:15:32.154Z,250
2017-07-17T06:15:58.284Z,270
2017-07-17T06:16:24.400Z,300
2017-07-17T06:16:50.526Z,320
2017-07-17T06:17:16.681Z,350
2017-07-17T06:17:42.802Z,375
2017-07-17T06:18:08.919Z,385